NE30 weather

Olson Field
Holdrege, Nebraska, United States

Public forecast

Using degrees Fahrenheit for public forecast. Weather courtesy of forecast.io.

Closest aviation weather report (METAR) to Olson Field

Closest report is Brewster Field, 8.2 nm (15.3 km) SSE. Retrieved 2019/10/21 17:35 UTC (0 seconds ago):

KHDE 211735Z AUTO 30026G40KT 10SM OVC033 08/01 A2967 RMK AO2 T00820008

Closest aviation forecast (TAF) to Olson Field

Closest forecast is Kearney Regional Airport, 21.0 nm (38.8 km) ENE. Retrieved 2019/10/21 12:30 UTC (5 hours ago):

TAF KEAR 211129Z 2112/2212 29021G37KT P6SM VCSH OVC027 FM212000 31027G39KT P6SM VCSH BKN040 FM212200 31026G37KT P6SM BKN100 FM220100 31019G28KT P6SM FEW200 FM220300 30014KT P6SM SKC WS008/32050KT